首页
METAR-TAF:

METAR-TAF

机场 :

巴利亚多利德, 西班牙

纬度: 41-43N, 经度: 004-51W, 海拔: 849米

当前天气观测

该预报发布于33分钟前的17:00 UTC
风速3节,风向西南
温度 5°C
湿度 87%
气压 1014 hPa
能见度10公里或以上
1500米以下无云,无积雨云

METAR: LEVD 191700Z 22003KT CAVOK 05/03 Q1014

时间: 18:33 (17:33 UTC)

预报

该预报发布于33分钟前的17:00 UTC
预报有效从19日的 18点(UTC)到 20日的 18点(UTC)
风速5节,风向多变
能见度10公里或以上
散云层高于4000英尺
短暂存在
从 20日的 01点(UTC)到 20日的 15点(UTC)
短暂存在
从 20日的 05点(UTC)到 20日的 15点(UTC)
风速10节,风向南转西南
能見度: 3000
多云层高于900英尺
雨, 轻雾
短暂存在
从 20日的 15点(UTC)到 20日的 18点(UTC)
风速10节,风向西南
少量云层高于1500英尺, 塔状积云.
几率 30% :
短暂存在
从 20日的 15点(UTC)到 20日的 18点(UTC)
散云层高于1500英尺, 塔状积云.
阵雨

TAF: LEVD 191700Z 1918/2018 VRB05KT 9999 SCT040 TX06/2014Z TN03/2007Z TEMPO 2001/2015 RA TEMPO 2005/2015 20010KT 3000 RA BR BKN009 TEMPO 2015/2018 23010KT FEW015TCU PROB30 TEMPO 2015/2018 SHRA SCT015TCU

超过4000个机场的气象观测和天气预报(METAR&TAF报告)。

可查询的气象台以黄色和红色小点在地图上表示。

将鼠标移到小点上方,可查看气象台名称。

然后点击查看天气观测和预报。

如需切换地图:点击带黑十字的绿色按钮放大地图;点击带横线的绿色按钮缩小地图;或者点击绿色箭头查看邻近地区的地图。


METAR-TAF: